sensor_id;sensor_type;location;lat;lon;timestamp;temperature;humidity
10316;DHT22;5203;48.976;8.306;2023-06-14T00:00:18;20.20;46.20
10316;DHT22;5203;48.976;8.306;2023-06-14T00:02:45;20.20;46.00
10316;DHT22;5203;48.976;8.306;2023-06-14T00:05:11;20.10;46.50
10316;DHT22;5203;48.976;8.306;2023-06-14T00:07:41;20.20;46.50
10316;DHT22;5203;48.976;8.306;2023-06-14T00:10:10;20.20;46.10
10316;DHT22;5203;48.976;8.306;2023-06-14T00:12:36;20.30;46.20
10316;DHT22;5203;48.976;8.306;2023-06-14T00:15:02;20.30;45.60
10316;DHT22;5203;48.976;8.306;2023-06-14T00:17:28;20.30;45.90
10316;DHT22;5203;48.976;8.306;2023-06-14T00:19:56;20.10;46.10
10316;DHT22;5203;48.976;8.306;2023-06-14T00:22:22;19.90;46.80
10316;DHT22;5203;48.976;8.306;2023-06-14T00:24:53;19.80;46.70
10316;DHT22;5203;48.976;8.306;2023-06-14T00:27:18;19.70;46.90
10316;DHT22;5203;48.976;8.306;2023-06-14T00:29:44;19.70;47.30
10316;DHT22;5203;48.976;8.306;2023-06-14T00:32:10;19.60;47.50
10316;DHT22;5203;48.976;8.306;2023-06-14T00:34:35;19.60;47.40
10316;DHT22;5203;48.976;8.306;2023-06-14T00:37:01;19.50;47.90
10316;DHT22;5203;48.976;8.306;2023-06-14T00:39:27;19.40;48.30
10316;DHT22;5203;48.976;8.306;2023-06-14T00:41:52;19.50;47.60
10316;DHT22;5203;48.976;8.306;2023-06-14T00:44:18;19.70;47.50
10316;DHT22;5203;48.976;8.306;2023-06-14T00:46:47;19.90;47.10
10316;DHT22;5203;48.976;8.306;2023-06-14T00:49:14;20.00;46.10
10316;DHT22;5203;48.976;8.306;2023-06-14T00:51:44;20.10;46.00
10316;DHT22;5203;48.976;8.306;2023-06-14T00:54:11;19.90;46.40
10316;DHT22;5203;48.976;8.306;2023-06-14T00:56:36;19.80;46.80
10316;DHT22;5203;48.976;8.306;2023-06-14T00:59:03;19.90;46.40
10316;DHT22;5203;48.976;8.306;2023-06-14T01:01:29;20.00;44.80
10316;DHT22;5203;48.976;8.306;2023-06-14T01:03:58;19.80;45.10
10316;DHT22;5203;48.976;8.306;2023-06-14T01:06:45;19.70;46.50
10316;DHT22;5203;48.976;8.306;2023-06-14T01:09:58;19.40;47.00
10316;DHT22;5203;48.976;8.306;2023-06-14T01:15:15;19.50;46.90
10316;DHT22;5203;48.976;8.306;2023-06-14T01:17:41;19.60;46.80
10316;DHT22;5203;48.976;8.306;2023-06-14T01:20:11;19.50;47.20
10316;DHT22;5203;48.976;8.306;2023-06-14T01:22:51;19.70;45.30
10316;DHT22;5203;48.976;8.306;2023-06-14T01:25:18;19.60;47.10
10316;DHT22;5203;48.976;8.306;2023-06-14T01:30:18;19.30;48.50
10316;DHT22;5203;48.976;8.306;2023-06-14T01:32:45;19.20;48.80
10316;DHT22;5203;48.976;8.306;2023-06-14T01:35:11;19.00;49.70
10316;DHT22;5203;48.976;8.306;2023-06-14T01:37:38;19.00;49.80
10316;DHT22;5203;48.976;8.306;2023-06-14T01:40:06;18.90;50.10
10316;DHT22;5203;48.976;8.306;2023-06-14T01:42:36;18.70;51.10
10316;DHT22;5203;48.976;8.306;2023-06-14T01:45:04;18.60;51.10
10316;DHT22;5203;48.976;8.306;2023-06-14T01:47:31;18.60;51.00
10316;DHT22;5203;48.976;8.306;2023-06-14T01:49:58;18.60;51.10
10316;DHT22;5203;48.976;8.306;2023-06-14T01:52:24;18.50;50.70
10316;DHT22;5203;48.976;8.306;2023-06-14T01:54:50;18.60;50.90
10316;DHT22;5203;48.976;8.306;2023-06-14T01:57:16;18.70;51.00
10316;DHT22;5203;48.976;8.306;2023-06-14T01:59:42;18.60;51.30
10316;DHT22;5203;48.976;8.306;2023-06-14T02:02:08;18.50;52.00
10316;DHT22;5203;48.976;8.306;2023-06-14T02:04:34;18.40;52.00
10316;DHT22;5203;48.976;8.306;2023-06-14T02:07:00;18.30;52.30
10316;DHT22;5203;48.976;8.306;2023-06-14T02:09:26;18.30;52.80
10316;DHT22;5203;48.976;8.306;2023-06-14T02:11:51;18.10;53.20
10316;DHT22;5203;48.976;8.306;2023-06-14T02:14:17;18.10;53.20
10316;DHT22;5203;48.976;8.306;2023-06-14T02:16:43;18.00;53.00
10316;DHT22;5203;48.976;8.306;2023-06-14T02:19:15;18.10;52.60
10316;DHT22;5203;48.976;8.306;2023-06-14T02:21:41;18.10;52.80
10316;DHT22;5203;48.976;8.306;2023-06-14T02:24:07;17.90;52.80
10316;DHT22;5203;48.976;8.306;2023-06-14T02:26:33;17.80;53.00
10316;DHT22;5203;48.976;8.306;2023-06-14T02:28:59;17.60;53.60
10316;DHT22;5203;48.976;8.306;2023-06-14T02:31:25;17.40;53.40
10316;DHT22;5203;48.976;8.306;2023-06-14T02:33:51;17.50;52.00
10316;DHT22;5203;48.976;8.306;2023-06-14T02:36:17;17.60;50.40
10316;DHT22;5203;48.976;8.306;2023-06-14T02:38:43;17.90;49.70
10316;DHT22;5203;48.976;8.306;2023-06-14T02:41:08;18.00;48.20
10316;DHT22;5203;48.976;8.306;2023-06-14T02:43:34;18.10;48.00
10316;DHT22;5203;48.976;8.306;2023-06-14T02:46:00;18.20;47.60
10316;DHT22;5203;48.976;8.306;2023-06-14T02:48:25;18.30;47.50
10316;DHT22;5203;48.976;8.306;2023-06-14T02:50:51;18.30;47.50
10316;DHT22;5203;48.976;8.306;2023-06-14T02:53:17;18.30;47.20
10316;DHT22;5203;48.976;8.306;2023-06-14T02:55:43;18.20;47.20
10316;DHT22;5203;48.976;8.306;2023-06-14T02:58:09;18.10;48.40
10316;DHT22;5203;48.976;8.306;2023-06-14T03:00:35;18.00;47.80
10316;DHT22;5203;48.976;8.306;2023-06-14T03:03:01;18.00;48.00
10316;DHT22;5203;48.976;8.306;2023-06-14T03:05:27;18.00;48.00
10316;DHT22;5203;48.976;8.306;2023-06-14T03:07:53;18.00;47.90
10316;DHT22;5203;48.976;8.306;2023-06-14T03:10:19;18.20;48.10
10316;DHT22;5203;48.976;8.306;2023-06-14T03:12:46;18.40;47.80
10316;DHT22;5203;48.976;8.306;2023-06-14T03:15:12;18.40;47.00
10316;DHT22;5203;48.976;8.306;2023-06-14T03:17:42;18.50;46.90
10316;DHT22;5203;48.976;8.306;2023-06-14T03:20:10;18.50;46.80
10316;DHT22;5203;48.976;8.306;2023-06-14T03:22:36;18.40;46.80
10316;DHT22;5203;48.976;8.306;2023-06-14T03:25:03;18.50;46.90
10316;DHT22;5203;48.976;8.306;2023-06-14T03:27:29;18.60;47.10
10316;DHT22;5203;48.976;8.306;2023-06-14T03:29:55;18.60;48.10
10316;DHT22;5203;48.976;8.306;2023-06-14T03:32:21;18.50;47.90
10316;DHT22;5203;48.976;8.306;2023-06-14T03:34:46;18.50;48.30
10316;DHT22;5203;48.976;8.306;2023-06-14T03:37:12;18.50;48.70
10316;DHT22;5203;48.976;8.306;2023-06-14T03:39:38;18.60;48.30
10316;DHT22;5203;48.976;8.306;2023-06-14T03:42:11;18.70;46.90
10316;DHT22;5203;48.976;8.306;2023-06-14T03:44:37;18.70;47.70
10316;DHT22;5203;48.976;8.306;2023-06-14T03:47:02;18.80;47.60
10316;DHT22;5203;48.976;8.306;2023-06-14T03:49:28;18.90;48.20
10316;DHT22;5203;48.976;8.306;2023-06-14T03:51:54;19.00;47.40
10316;DHT22;5203;48.976;8.306;2023-06-14T03:54:20;19.00;46.70
10316;DHT22;5203;48.976;8.306;2023-06-14T03:56:47;19.00;47.40
10316;DHT22;5203;48.976;8.306;2023-06-14T03:59:12;19.00;46.90
10316;DHT22;5203;48.976;8.306;2023-06-14T04:01:38;18.90;47.40
10316;DHT22;5203;48.976;8.306;2023-06-14T04:04:11;18.80;47.50
10316;DHT22;5203;48.976;8.306;2023-06-14T04:06:37;18.90;47.20
10316;DHT22;5203;48.976;8.306;2023-06-14T04:09:03;18.90;47.70
10316;DHT22;5203;48.976;8.306;2023-06-14T04:11:29;18.80;47.60
10316;DHT22;5203;48.976;8.306;2023-06-14T04:13:54;18.90;47.90
10316;DHT22;5203;48.976;8.306;2023-06-14T04:16:22;19.00;47.60
10316;DHT22;5203;48.976;8.306;2023-06-14T04:18:47;18.90;47.50
10316;DHT22;5203;48.976;8.306;2023-06-14T04:21:16;18.90;48.40
10316;DHT22;5203;48.976;8.306;2023-06-14T04:23:42;19.00;49.00
10316;DHT22;5203;48.976;8.306;2023-06-14T04:26:09;18.90;48.10
10316;DHT22;5203;48.976;8.306;2023-06-14T04:28:36;18.90;48.10
10316;DHT22;5203;48.976;8.306;2023-06-14T04:31:06;18.90;47.20
10316;DHT22;5203;48.976;8.306;2023-06-14T04:33:35;19.00;48.10
10316;DHT22;5203;48.976;8.306;2023-06-14T04:36:09;19.00;48.40
10316;DHT22;5203;48.976;8.306;2023-06-14T04:38:37;19.00;47.80
10316;DHT22;5203;48.976;8.306;2023-06-14T04:41:03;19.00;48.50
10316;DHT22;5203;48.976;8.306;2023-06-14T04:43:29;18.90;48.60
10316;DHT22;5203;48.976;8.306;2023-06-14T04:45:55;18.90;48.10
10316;DHT22;5203;48.976;8.306;2023-06-14T04:48:22;18.90;48.50
10316;DHT22;5203;48.976;8.306;2023-06-14T04:50:48;18.90;48.60
10316;DHT22;5203;48.976;8.306;2023-06-14T04:53:19;18.90;48.70
10316;DHT22;5203;48.976;8.306;2023-06-14T04:55:48;18.90;49.00
10316;DHT22;5203;48.976;8.306;2023-06-14T04:58:14;18.90;49.00
10316;DHT22;5203;48.976;8.306;2023-06-14T05:00:39;18.80;48.80
10316;DHT22;5203;48.976;8.306;2023-06-14T05:03:07;18.80;48.80
10316;DHT22;5203;48.976;8.306;2023-06-14T05:05:34;18.80;48.80
10316;DHT22;5203;48.976;8.306;2023-06-14T05:07:59;18.80;49.00
10316;DHT22;5203;48.976;8.306;2023-06-14T05:10:25;18.70;49.50
10316;DHT22;5203;48.976;8.306;2023-06-14T05:12:51;18.70;49.50
10316;DHT22;5203;48.976;8.306;2023-06-14T05:15:18;18.70;49.80
10316;DHT22;5203;48.976;8.306;2023-06-14T05:17:46;18.70;50.10
10316;DHT22;5203;48.976;8.306;2023-06-14T05:20:18;18.80;49.80
10316;DHT22;5203;48.976;8.306;2023-06-14T05:22:44;18.70;49.90
10316;DHT22;5203;48.976;8.306;2023-06-14T05:25:09;18.70;49.50
10316;DHT22;5203;48.976;8.306;2023-06-14T05:27:35;18.80;50.50
10316;DHT22;5203;48.976;8.306;2023-06-14T05:30:02;18.80;49.70
10316;DHT22;5203;48.976;8.306;2023-06-14T05:32:29;18.90;49.10
10316;DHT22;5203;48.976;8.306;2023-06-14T05:34:55;18.80;47.90
10316;DHT22;5203;48.976;8.306;2023-06-14T05:37:21;18.90;47.90
10316;DHT22;5203;48.976;8.306;2023-06-14T05:39:47;18.90;47.30
10316;DHT22;5203;48.976;8.306;2023-06-14T05:42:13;19.00;47.80
10316;DHT22;5203;48.976;8.306;2023-06-14T05:44:38;19.00;47.60
10316;DHT22;5203;48.976;8.306;2023-06-14T05:47:04;19.20;47.50
10316;DHT22;5203;48.976;8.306;2023-06-14T05:49:30;19.30;47.20
10316;DHT22;5203;48.976;8.306;2023-06-14T05:51:56;19.30;46.50
10316;DHT22;5203;48.976;8.306;2023-06-14T05:54:22;19.40;47.10
10316;DHT22;5203;48.976;8.306;2023-06-14T05:56:47;19.40;46.40
10316;DHT22;5203;48.976;8.306;2023-06-14T05:59:13;19.30;45.90
10316;DHT22;5203;48.976;8.306;2023-06-14T06:01:39;19.40;46.10
10316;DHT22;5203;48.976;8.306;2023-06-14T06:04:05;19.40;45.90
10316;DHT22;5203;48.976;8.306;2023-06-14T06:06:31;19.40;45.60
10316;DHT22;5203;48.976;8.306;2023-06-14T06:08:58;19.40;44.70
10316;DHT22;5203;48.976;8.306;2023-06-14T06:11:24;19.30;45.20
10316;DHT22;5203;48.976;8.306;2023-06-14T06:13:49;19.40;45.20
10316;DHT22;5203;48.976;8.306;2023-06-14T06:16:16;19.60;45.40
10316;DHT22;5203;48.976;8.306;2023-06-14T06:18:41;19.60;45.00
10316;DHT22;5203;48.976;8.306;2023-06-14T06:21:07;19.70;44.50
10316;DHT22;5203;48.976;8.306;2023-06-14T06:23:32;19.60;44.90
10316;DHT22;5203;48.976;8.306;2023-06-14T06:25:58;19.70;45.40
10316;DHT22;5203;48.976;8.306;2023-06-14T06:28:24;19.70;44.80
10316;DHT22;5203;48.976;8.306;2023-06-14T06:30:49;19.80;45.20
10316;DHT22;5203;48.976;8.306;2023-06-14T06:33:16;19.80;44.90
10316;DHT22;5203;48.976;8.306;2023-06-14T06:35:42;19.80;45.00
10316;DHT22;5203;48.976;8.306;2023-06-14T06:38:08;19.80;45.40
10316;DHT22;5203;48.976;8.306;2023-06-14T06:40:35;20.00;44.60
10316;DHT22;5203;48.976;8.306;2023-06-14T06:43:02;20.10;44.60
10316;DHT22;5203;48.976;8.306;2023-06-14T06:45:28;20.20;44.50
10316;DHT22;5203;48.976;8.306;2023-06-14T06:47:54;20.30;43.90
10316;DHT22;5203;48.976;8.306;2023-06-14T06:50:21;20.30;44.30
10316;DHT22;5203;48.976;8.306;2023-06-14T06:52:48;20.30;43.90
10316;DHT22;5203;48.976;8.306;2023-06-14T06:55:14;20.30;44.40
10316;DHT22;5203;48.976;8.306;2023-06-14T06:57:40;20.30;44.30
10316;DHT22;5203;48.976;8.306;2023-06-14T07:00:07;20.40;44.00
10316;DHT22;5203;48.976;8.306;2023-06-14T07:02:35;20.60;43.10
10316;DHT22;5203;48.976;8.306;2023-06-14T07:05:00;20.60;43.30
10316;DHT22;5203;48.976;8.306;2023-06-14T07:07:26;20.70;43.40
10316;DHT22;5203;48.976;8.306;2023-06-14T07:09:52;20.60;43.70
10316;DHT22;5203;48.976;8.306;2023-06-14T07:12:17;20.80;44.10
10316;DHT22;5203;48.976;8.306;2023-06-14T07:14:43;20.90;43.90
10316;DHT22;5203;48.976;8.306;2023-06-14T07:17:09;20.90;43.30
10316;DHT22;5203;48.976;8.306;2023-06-14T07:19:35;21.00;42.80
10316;DHT22;5203;48.976;8.306;2023-06-14T07:22:00;21.10;43.50
10316;DHT22;5203;48.976;8.306;2023-06-14T07:24:26;21.20;43.50
10316;DHT22;5203;48.976;8.306;2023-06-14T07:26:54;21.20;42.30
10316;DHT22;5203;48.976;8.306;2023-06-14T07:29:20;21.10;42.90
10316;DHT22;5203;48.976;8.306;2023-06-14T07:31:47;20.90;43.40
10316;DHT22;5203;48.976;8.306;2023-06-14T07:34:13;21.00;43.30
10316;DHT22;5203;48.976;8.306;2023-06-14T07:36:39;21.10;43.20
10316;DHT22;5203;48.976;8.306;2023-06-14T07:39:05;21.20;42.60
10316;DHT22;5203;48.976;8.306;2023-06-14T07:41:32;21.30;41.20
10316;DHT22;5203;48.976;8.306;2023-06-14T07:43:58;21.40;41.80
10316;DHT22;5203;48.976;8.306;2023-06-14T07:46:23;21.40;42.10
10316;DHT22;5203;48.976;8.306;2023-06-14T07:48:49;21.50;41.70
10316;DHT22;5203;48.976;8.306;2023-06-14T07:51:15;21.70;41.60
10316;DHT22;5203;48.976;8.306;2023-06-14T07:53:41;21.90;40.80
10316;DHT22;5203;48.976;8.306;2023-06-14T07:56:07;22.00;40.50
10316;DHT22;5203;48.976;8.306;2023-06-14T07:58:33;22.20;39.40
10316;DHT22;5203;48.976;8.306;2023-06-14T08:00:59;22.30;38.80
10316;DHT22;5203;48.976;8.306;2023-06-14T08:03:26;22.40;40.40
10316;DHT22;5203;48.976;8.306;2023-06-14T08:05:52;22.50;40.10
10316;DHT22;5203;48.976;8.306;2023-06-14T08:08:18;22.70;39.50
10316;DHT22;5203;48.976;8.306;2023-06-14T08:10:44;22.70;38.60
10316;DHT22;5203;48.976;8.306;2023-06-14T08:13:10;22.80;38.20
10316;DHT22;5203;48.976;8.306;2023-06-14T08:15:35;22.90;37.20
10316;DHT22;5203;48.976;8.306;2023-06-14T08:18:01;23.00;38.20
10316;DHT22;5203;48.976;8.306;2023-06-14T08:20:27;23.20;37.20
10316;DHT22;5203;48.976;8.306;2023-06-14T08:22:53;23.40;36.90
10316;DHT22;5203;48.976;8.306;2023-06-14T08:25:22;23.60;36.00
10316;DHT22;5203;48.976;8.306;2023-06-14T08:27:48;23.60;35.80
10316;DHT22;5203;48.976;8.306;2023-06-14T08:30:14;23.70;35.50
10316;DHT22;5203;48.976;8.306;2023-06-14T08:32:40;23.70;35.70
10316;DHT22;5203;48.976;8.306;2023-06-14T08:35:06;23.80;35.20
10316;DHT22;5203;48.976;8.306;2023-06-14T08:37:32;23.70;35.00
10316;DHT22;5203;48.976;8.306;2023-06-14T08:40:01;23.70;35.00
10316;DHT22;5203;48.976;8.306;2023-06-14T08:42:31;23.90;34.70
10316;DHT22;5203;48.976;8.306;2023-06-14T08:44:57;23.80;35.10
10316;DHT22;5203;48.976;8.306;2023-06-14T08:47:24;23.70;35.00
10316;DHT22;5203;48.976;8.306;2023-06-14T08:49:53;23.80;34.70
10316;DHT22;5203;48.976;8.306;2023-06-14T08:52:23;24.10;34.60
10316;DHT22;5203;48.976;8.306;2023-06-14T08:54:49;24.30;34.10
10316;DHT22;5203;48.976;8.306;2023-06-14T08:57:16;24.40;34.40
10316;DHT22;5203;48.976;8.306;2023-06-14T08:59:46;24.50;33.70
10316;DHT22;5203;48.976;8.306;2023-06-14T09:02:15;24.60;33.30
10316;DHT22;5203;48.976;8.306;2023-06-14T09:04:43;24.50;33.50
10316;DHT22;5203;48.976;8.306;2023-06-14T09:07:10;24.50;33.80
10316;DHT22;5203;48.976;8.306;2023-06-14T09:09:40;24.50;33.50
10316;DHT22;5203;48.976;8.306;2023-06-14T09:12:08;24.60;33.30
10316;DHT22;5203;48.976;8.306;2023-06-14T09:14:36;25.00;32.60
10316;DHT22;5203;48.976;8.306;2023-06-14T09:17:04;25.20;32.30
10316;DHT22;5203;48.976;8.306;2023-06-14T09:19:30;25.50;31.70
10316;DHT22;5203;48.976;8.306;2023-06-14T09:21:55;25.60;31.20
10316;DHT22;5203;48.976;8.306;2023-06-14T09:24:23;25.50;31.70
10316;DHT22;5203;48.976;8.306;2023-06-14T09:26:51;25.70;31.50
10316;DHT22;5203;48.976;8.306;2023-06-14T09:29:17;25.90;31.20
10316;DHT22;5203;48.976;8.306;2023-06-14T09:31:45;25.60;31.00
10316;DHT22;5203;48.976;8.306;2023-06-14T09:34:11;25.80;31.00
10316;DHT22;5203;48.976;8.306;2023-06-14T09:36:39;26.00;30.30
10316;DHT22;5203;48.976;8.306;2023-06-14T09:39:06;25.90;30.70
10316;DHT22;5203;48.976;8.306;2023-06-14T09:41:34;26.10;30.70
10316;DHT22;5203;48.976;8.306;2023-06-14T09:44:02;26.00;31.30
10316;DHT22;5203;48.976;8.306;2023-06-14T09:46:28;26.00;31.50
10316;DHT22;5203;48.976;8.306;2023-06-14T09:48:58;26.40;30.20
10316;DHT22;5203;48.976;8.306;2023-06-14T09:51:25;26.60;29.30
10316;DHT22;5203;48.976;8.306;2023-06-14T09:53:52;26.70;28.90
10316;DHT22;5203;48.976;8.306;2023-06-14T09:56:31;26.90;28.90
10316;DHT22;5203;48.976;8.306;2023-06-14T09:58:59;27.20;29.30
10316;DHT22;5203;48.976;8.306;2023-06-14T10:01:26;27.10;28.70
10316;DHT22;5203;48.976;8.306;2023-06-14T10:04:02;27.20;28.90
10316;DHT22;5203;48.976;8.306;2023-06-14T10:06:29;27.40;29.00
10316;DHT22;5203;48.976;8.306;2023-06-14T10:08:58;27.40;28.80
10316;DHT22;5203;48.976;8.306;2023-06-14T10:11:27;27.40;28.20
10316;DHT22;5203;48.976;8.306;2023-06-14T10:13:57;27.20;28.60
10316;DHT22;5203;48.976;8.306;2023-06-14T10:22:03;27.40;28.40
10316;DHT22;5203;48.976;8.306;2023-06-14T10:24:38;27.40;28.40
10316;DHT22;5203;48.976;8.306;2023-06-14T10:27:07;27.30;28.70
10316;DHT22;5203;48.976;8.306;2023-06-14T10:32:22;28.10;27.50
10316;DHT22;5203;48.976;8.306;2023-06-14T10:34:58;28.40;27.40
10316;DHT22;5203;48.976;8.306;2023-06-14T10:37:24;28.40;26.40
10316;DHT22;5203;48.976;8.306;2023-06-14T10:39:50;28.20;27.00
10316;DHT22;5203;48.976;8.306;2023-06-14T10:42:16;28.10;27.70
10316;DHT22;5203;48.976;8.306;2023-06-14T10:44:49;27.80;27.00
10316;DHT22;5203;48.976;8.306;2023-06-14T10:47:32;27.60;27.20
10316;DHT22;5203;48.976;8.306;2023-06-14T10:52:40;27.30;27.90
10316;DHT22;5203;48.976;8.306;2023-06-14T10:55:16;27.40;27.00
10316;DHT22;5203;48.976;8.306;2023-06-14T11:00:22;28.20;25.30
10316;DHT22;5203;48.976;8.306;2023-06-14T11:05:48;29.10;24.90
10316;DHT22;5203;48.976;8.306;2023-06-14T11:08:45;29.10;25.30
10316;DHT22;5203;48.976;8.306;2023-06-14T11:11:13;29.50;25.00
10316;DHT22;5203;48.976;8.306;2023-06-14T11:13:41;29.40;25.00
10316;DHT22;5203;48.976;8.306;2023-06-14T11:16:13;29.30;25.20
10316;DHT22;5203;48.976;8.306;2023-06-14T11:18:40;29.10;25.50
10316;DHT22;5203;48.976;8.306;2023-06-14T11:21:06;29.50;25.40
10316;DHT22;5203;48.976;8.306;2023-06-14T11:23:32;29.50;25.90
10316;DHT22;5203;48.976;8.306;2023-06-14T11:25:57;29.50;24.80
10316;DHT22;5203;48.976;8.306;2023-06-14T11:28:23;28.90;25.10
10316;DHT22;5203;48.976;8.306;2023-06-14T11:31:01;28.60;25.00
10316;DHT22;5203;48.976;8.306;2023-06-14T11:33:27;28.50;25.50
10316;DHT22;5203;48.976;8.306;2023-06-14T11:35:53;28.60;25.80
10316;DHT22;5203;48.976;8.306;2023-06-14T11:38:18;29.20;25.70
10316;DHT22;5203;48.976;8.306;2023-06-14T11:40:44;29.40;25.10
10316;DHT22;5203;48.976;8.306;2023-06-14T11:43:10;29.50;24.80
10316;DHT22;5203;48.976;8.306;2023-06-14T11:45:38;29.80;25.20
10316;DHT22;5203;48.976;8.306;2023-06-14T11:48:04;30.20;25.40
10316;DHT22;5203;48.976;8.306;2023-06-14T11:50:31;29.70;25.00
10316;DHT22;5203;48.976;8.306;2023-06-14T11:53:01;28.90;25.50
10316;DHT22;5203;48.976;8.306;2023-06-14T11:55:42;28.70;26.30
10316;DHT22;5203;48.976;8.306;2023-06-14T11:58:10;29.20;26.50
10316;DHT22;5203;48.976;8.306;2023-06-14T12:00:37;29.60;26.20
10316;DHT22;5203;48.976;8.306;2023-06-14T12:03:03;29.40;25.70
10316;DHT22;5203;48.976;8.306;2023-06-14T12:05:29;29.70;25.50
10316;DHT22;5203;48.976;8.306;2023-06-14T12:08:03;30.10;25.50
10316;DHT22;5203;48.976;8.306;2023-06-14T12:10:29;29.80;25.00
10316;DHT22;5203;48.976;8.306;2023-06-14T12:12:59;29.50;25.20
10316;DHT22;5203;48.976;8.306;2023-06-14T12:15:27;29.70;25.40
10316;DHT22;5203;48.976;8.306;2023-06-14T12:17:54;30.20;25.70
10316;DHT22;5203;48.976;8.306;2023-06-14T12:20:20;30.40;24.70
10316;DHT22;5203;48.976;8.306;2023-06-14T12:22:58;30.50;25.00
10316;DHT22;5203;48.976;8.306;2023-06-14T12:25:31;30.50;25.60
10316;DHT22;5203;48.976;8.306;2023-06-14T12:27:59;30.30;25.00
10316;DHT22;5203;48.976;8.306;2023-06-14T12:30:25;29.90;25.10
10316;DHT22;5203;48.976;8.306;2023-06-14T12:32:50;29.20;26.10
10316;DHT22;5203;48.976;8.306;2023-06-14T12:35:17;28.80;26.40
10316;DHT22;5203;48.976;8.306;2023-06-14T12:37:45;28.40;26.50
10316;DHT22;5203;48.976;8.306;2023-06-14T12:40:11;29.00;26.20
10316;DHT22;5203;48.976;8.306;2023-06-14T12:42:37;29.80;25.80
10316;DHT22;5203;48.976;8.306;2023-06-14T12:45:04;30.30;25.00
10316;DHT22;5203;48.976;8.306;2023-06-14T12:47:30;30.60;23.70
10316;DHT22;5203;48.976;8.306;2023-06-14T12:49:56;31.00;23.80
10316;DHT22;5203;48.976;8.306;2023-06-14T12:52:21;31.00;23.70
10316;DHT22;5203;48.976;8.306;2023-06-14T12:54:47;31.40;23.40
10316;DHT22;5203;48.976;8.306;2023-06-14T12:57:13;31.80;23.70
10316;DHT22;5203;48.976;8.306;2023-06-14T12:59:38;31.60;23.10
10316;DHT22;5203;48.976;8.306;2023-06-14T13:02:15;30.90;23.90
10316;DHT22;5203;48.976;8.306;2023-06-14T13:04:41;30.90;23.70
10316;DHT22;5203;48.976;8.306;2023-06-14T13:07:07;31.40;22.80
10316;DHT22;5203;48.976;8.306;2023-06-14T13:09:32;31.10;23.80
10316;DHT22;5203;48.976;8.306;2023-06-14T13:11:58;31.20;23.90
10316;DHT22;5203;48.976;8.306;2023-06-14T13:14:24;30.90;23.00
10316;DHT22;5203;48.976;8.306;2023-06-14T13:16:50;31.20;22.90
10316;DHT22;5203;48.976;8.306;2023-06-14T13:19:15;32.20;22.60
10316;DHT22;5203;48.976;8.306;2023-06-14T13:21:41;32.00;22.50
10316;DHT22;5203;48.976;8.306;2023-06-14T13:24:07;32.10;22.20
10316;DHT22;5203;48.976;8.306;2023-06-14T13:26:33;32.00;22.10
10316;DHT22;5203;48.976;8.306;2023-06-14T13:28:59;32.50;21.80
10316;DHT22;5203;48.976;8.306;2023-06-14T13:31:25;32.90;22.20
10316;DHT22;5203;48.976;8.306;2023-06-14T13:33:51;33.50;21.70
10316;DHT22;5203;48.976;8.306;2023-06-14T13:36:17;33.60;21.40
10316;DHT22;5203;48.976;8.306;2023-06-14T13:38:43;33.90;21.10
10316;DHT22;5203;48.976;8.306;2023-06-14T13:41:08;33.00;21.70
10316;DHT22;5203;48.976;8.306;2023-06-14T13:43:34;32.40;21.90
10316;DHT22;5203;48.976;8.306;2023-06-14T13:45:59;32.60;21.80
10316;DHT22;5203;48.976;8.306;2023-06-14T13:48:26;32.80;21.60
10316;DHT22;5203;48.976;8.306;2023-06-14T13:50:51;33.20;21.90
10316;DHT22;5203;48.976;8.306;2023-06-14T13:53:17;33.10;21.80
10316;DHT22;5203;48.976;8.306;2023-06-14T13:55:43;32.50;21.80
10316;DHT22;5203;48.976;8.306;2023-06-14T13:58:09;32.40;22.10
10316;DHT22;5203;48.976;8.306;2023-06-14T14:00:34;33.00;21.40
10316;DHT22;5203;48.976;8.306;2023-06-14T14:03:02;33.40;21.00
10316;DHT22;5203;48.976;8.306;2023-06-14T14:05:28;33.40;21.00
10316;DHT22;5203;48.976;8.306;2023-06-14T14:07:56;33.60;20.60
10316;DHT22;5203;48.976;8.306;2023-06-14T14:10:23;33.30;21.00
10316;DHT22;5203;48.976;8.306;2023-06-14T14:12:50;33.40;21.30
10316;DHT22;5203;48.976;8.306;2023-06-14T14:15:16;33.50;21.40
10316;DHT22;5203;48.976;8.306;2023-06-14T14:17:42;32.90;21.90
10316;DHT22;5203;48.976;8.306;2023-06-14T14:20:08;32.50;22.30
10316;DHT22;5203;48.976;8.306;2023-06-14T14:22:34;32.60;22.20
10316;DHT22;5203;48.976;8.306;2023-06-14T14:25:00;32.90;21.80
10316;DHT22;5203;48.976;8.306;2023-06-14T14:27:26;32.70;21.90
10316;DHT22;5203;48.976;8.306;2023-06-14T14:29:51;32.00;22.30
10316;DHT22;5203;48.976;8.306;2023-06-14T14:32:17;32.50;21.60
10316;DHT22;5203;48.976;8.306;2023-06-14T14:34:43;32.90;21.60
10316;DHT22;5203;48.976;8.306;2023-06-14T14:37:08;32.90;21.50
10316;DHT22;5203;48.976;8.306;2023-06-14T14:39:34;33.10;21.70
10316;DHT22;5203;48.976;8.306;2023-06-14T14:42:02;32.70;21.90
10316;DHT22;5203;48.976;8.306;2023-06-14T14:44:28;32.80;22.20
10316;DHT22;5203;48.976;8.306;2023-06-14T14:46:53;33.10;21.80
10316;DHT22;5203;48.976;8.306;2023-06-14T14:49:19;33.00;21.70
10316;DHT22;5203;48.976;8.306;2023-06-14T14:51:45;32.90;21.30
10316;DHT22;5203;48.976;8.306;2023-06-14T14:54:11;33.10;21.30
10316;DHT22;5203;48.976;8.306;2023-06-14T14:56:37;33.60;20.90
10316;DHT22;5203;48.976;8.306;2023-06-14T14:59:04;34.00;20.40
10316;DHT22;5203;48.976;8.306;2023-06-14T15:01:30;33.90;20.40
10316;DHT22;5203;48.976;8.306;2023-06-14T15:03:55;33.80;21.30
10316;DHT22;5203;48.976;8.306;2023-06-14T15:06:21;33.50;20.70
10316;DHT22;5203;48.976;8.306;2023-06-14T15:08:46;33.50;20.90
10316;DHT22;5203;48.976;8.306;2023-06-14T15:11:12;33.80;19.60
10316;DHT22;5203;48.976;8.306;2023-06-14T15:13:38;34.10;19.60
10316;DHT22;5203;48.976;8.306;2023-06-14T15:16:04;34.60;19.30
10316;DHT22;5203;48.976;8.306;2023-06-14T15:18:30;34.40;20.00
10316;DHT22;5203;48.976;8.306;2023-06-14T15:20:56;33.80;20.60
10316;DHT22;5203;48.976;8.306;2023-06-14T15:23:21;33.70;20.20
10316;DHT22;5203;48.976;8.306;2023-06-14T15:25:48;34.00;20.30
10316;DHT22;5203;48.976;8.306;2023-06-14T15:28:13;34.00;20.40
10316;DHT22;5203;48.976;8.306;2023-06-14T15:30:39;33.50;20.60
10316;DHT22;5203;48.976;8.306;2023-06-14T15:33:05;33.30;20.80
10316;DHT22;5203;48.976;8.306;2023-06-14T15:35:31;33.00;21.30
10316;DHT22;5203;48.976;8.306;2023-06-14T15:37:58;33.00;21.20
10316;DHT22;5203;48.976;8.306;2023-06-14T15:40:24;33.50;21.00
10316;DHT22;5203;48.976;8.306;2023-06-14T15:42:49;33.50;20.10
10316;DHT22;5203;48.976;8.306;2023-06-14T15:45:15;33.90;19.90
10316;DHT22;5203;48.976;8.306;2023-06-14T15:47:41;34.00;19.80
10316;DHT22;5203;48.976;8.306;2023-06-14T15:50:07;34.10;20.70
10316;DHT22;5203;48.976;8.306;2023-06-14T15:52:33;33.80;20.70
10316;DHT22;5203;48.976;8.306;2023-06-14T15:54:59;33.90;20.40
10316;DHT22;5203;48.976;8.306;2023-06-14T15:57:25;33.60;19.60
10316;DHT22;5203;48.976;8.306;2023-06-14T15:59:51;33.70;20.10
10316;DHT22;5203;48.976;8.306;2023-06-14T16:02:17;33.50;20.50
10316;DHT22;5203;48.976;8.306;2023-06-14T16:04:43;32.80;21.30